createdAt,value
2023-05-07T00:00:35.604Z,11.77
2023-05-07T00:03:39.489Z,11.70
2023-05-07T00:06:42.514Z,10.48
2023-05-07T00:09:45.524Z,9.95
2023-05-07T00:12:48.502Z,8.80
2023-05-07T00:15:51.332Z,8.32
2023-05-07T00:18:54.124Z,8.18
2023-05-07T00:21:57.396Z,7.90
2023-05-07T00:25:00.707Z,7.72
2023-05-07T00:28:05.102Z,9.32
2023-05-07T00:31:07.786Z,8.88
2023-05-07T00:34:10.735Z,9.73
2023-05-07T00:37:13.484Z,9.20
2023-05-07T00:40:16.144Z,8.73
2023-05-07T00:43:18.912Z,8.93
2023-05-07T00:46:22.722Z,9.00
2023-05-07T00:49:39.351Z,8.63
2023-05-07T00:52:43.337Z,7.75
2023-05-07T00:55:46.300Z,8.48
2023-05-07T00:58:49.811Z,9.10
2023-05-07T01:01:53.377Z,8.93
2023-05-07T01:04:57.010Z,9.98
2023-05-07T01:08:00.862Z,10.30
2023-05-07T01:11:03.833Z,10.70
2023-05-07T01:14:06.837Z,11.73
2023-05-07T01:17:09.791Z,12.00
2023-05-07T01:20:13.647Z,11.65
2023-05-07T01:23:18.907Z,12.77
2023-05-07T01:26:23.605Z,11.85
2023-05-07T01:29:26.803Z,12.18
2023-05-07T01:32:53.007Z,12.05
2023-05-07T01:35:56.112Z,12.52
2023-05-07T01:39:00.052Z,12.45
2023-05-07T01:42:03.010Z,12.63
2023-05-07T01:45:06.805Z,12.18
2023-05-07T01:48:11.535Z,12.95
2023-05-07T01:51:14.409Z,12.48
2023-05-07T01:54:17.973Z,12.98
2023-05-07T01:57:20.733Z,13.23
2023-05-07T02:00:23.763Z,13.20
2023-05-07T02:03:27.354Z,12.68
2023-05-07T02:06:39.134Z,12.43
2023-05-07T02:09:43.717Z,12.32
2023-05-07T02:12:48.308Z,12.85
2023-05-07T02:15:51.895Z,13.15
2023-05-07T02:18:55.150Z,13.25
2023-05-07T02:21:57.985Z,13.07
2023-05-07T02:25:06.216Z,13.80
2023-05-07T02:28:09.044Z,14.88
2023-05-07T02:31:19.701Z,14.15
2023-05-07T02:34:22.711Z,13.85
2023-05-07T02:37:25.550Z,12.52
2023-05-07T02:40:28.685Z,12.00
2023-05-07T02:43:31.464Z,12.48
2023-05-07T02:46:34.569Z,12.20
2023-05-07T02:49:42.125Z,11.80
2023-05-07T02:52:45.336Z,12.40
2023-05-07T02:55:48.065Z,12.82
2023-05-07T02:58:50.690Z,11.73
2023-05-07T03:01:55.197Z,13.10
2023-05-07T03:04:57.978Z,14.90
2023-05-07T03:08:00.868Z,15.10
2023-05-07T03:11:03.852Z,15.07
2023-05-07T03:14:06.650Z,15.02
2023-05-07T03:17:09.405Z,15.70
2023-05-07T03:20:13.101Z,15.27
2023-05-07T03:23:17.402Z,13.73
2023-05-07T03:26:20.082Z,14.48
2023-05-07T03:29:22.887Z,15.20
2023-05-07T03:32:26.289Z,15.60
2023-05-07T03:35:29.447Z,14.90
2023-05-07T03:38:32.552Z,14.65
2023-05-07T03:41:35.486Z,14.25
2023-05-07T03:44:38.440Z,14.43
2023-05-07T03:47:41.391Z,14.48
2023-05-07T03:50:45.956Z,14.82
2023-05-07T03:53:49.254Z,14.73
2023-05-07T03:56:52.308Z,15.18
2023-05-07T03:59:55.256Z,15.20
2023-05-07T04:02:58.093Z,14.65
2023-05-07T04:06:03.592Z,14.10
2023-05-07T04:09:09.348Z,15.15
2023-05-07T04:12:14.670Z,14.50
2023-05-07T04:15:17.632Z,14.07
2023-05-07T04:18:21.300Z,13.90
2023-05-07T04:21:25.569Z,12.85
2023-05-07T04:24:28.390Z,14.00
2023-05-07T04:27:31.291Z,12.63
2023-05-07T04:30:33.979Z,13.70
2023-05-07T04:33:39.369Z,13.95
2023-05-07T04:36:44.737Z,12.80
2023-05-07T04:39:50.228Z,13.98
2023-05-07T04:42:54.578Z,13.25
2023-05-07T04:45:58.138Z,13.68
2023-05-07T04:49:03.354Z,13.40
2023-05-07T04:52:06.353Z,13.75
2023-05-07T04:55:10.133Z,13.57
2023-05-07T04:58:15.540Z,14.53
2023-05-07T05:01:19.934Z,13.63
2023-05-07T05:04:25.660Z,13.15
2023-05-07T05:07:28.860Z,12.82
2023-05-07T05:10:31.931Z,13.00
2023-05-07T05:13:34.716Z,12.38
2023-05-07T05:16:43.537Z,11.80
2023-05-07T05:19:47.004Z,12.48
2023-05-07T05:22:50.168Z,12.25
2023-05-07T05:26:00.134Z,12.20
2023-05-07T05:29:06.361Z,12.65
2023-05-07T05:32:09.208Z,11.20
2023-05-07T05:35:12.776Z,11.70
2023-05-07T05:38:17.010Z,11.57
2023-05-07T05:41:19.824Z,11.48
2023-05-07T05:44:22.886Z,12.35
2023-05-07T05:47:25.904Z,12.30
2023-05-07T05:50:31.717Z,11.23
2023-05-07T05:53:35.741Z,11.15
2023-05-07T05:56:39.335Z,10.90
2023-05-07T05:59:42.426Z,10.77
2023-05-07T06:02:45.408Z,10.57
2023-05-07T06:05:51.658Z,10.23
2023-05-07T06:08:59.580Z,9.48
2023-05-07T06:12:10.038Z,9.48
2023-05-07T06:15:13.402Z,9.52
2023-05-07T06:18:17.555Z,9.70
2023-05-07T06:21:20.959Z,8.40
2023-05-07T06:24:25.287Z,8.15
2023-05-07T06:27:29.407Z,7.95
2023-05-07T06:30:33.074Z,7.10
2023-05-07T06:33:36.411Z,6.65
2023-05-07T06:36:39.647Z,7.95
2023-05-07T06:39:51.330Z,6.93
2023-05-07T06:42:54.510Z,6.43
2023-05-07T06:46:20.130Z,6.85
2023-05-07T06:49:23.597Z,6.88
2023-05-07T06:52:28.342Z,6.47
2023-05-07T06:55:32.316Z,6.97
2023-05-07T06:58:35.837Z,6.10
2023-05-07T07:01:39.190Z,6.35
2023-05-07T07:04:43.962Z,6.65
2023-05-07T07:07:54.031Z,5.82
2023-05-07T07:10:59.242Z,6.82
2023-05-07T07:14:02.607Z,6.25
2023-05-07T07:17:08.400Z,6.40
2023-05-07T07:20:12.445Z,6.22
2023-05-07T07:23:17.051Z,6.97
2023-05-07T07:26:19.892Z,5.78
2023-05-07T07:29:22.887Z,5.40
2023-05-07T07:32:26.058Z,5.32
2023-05-07T07:35:31.598Z,5.78
2023-05-07T07:38:35.482Z,5.47
2023-05-07T07:41:39.138Z,5.18
2023-05-07T07:44:43.051Z,5.88
2023-05-07T07:47:48.786Z,5.53
2023-05-07T07:50:55.322Z,6.20
2023-05-07T07:53:59.398Z,6.45
2023-05-07T07:57:03.283Z,6.40
2023-05-07T08:00:10.223Z,5.72
2023-05-07T08:03:21.207Z,5.45
2023-05-07T08:06:28.657Z,6.22
2023-05-07T08:09:32.142Z,5.93
2023-05-07T08:12:36.969Z,6.05
2023-05-07T08:15:40.100Z,5.72
2023-05-07T08:18:43.628Z,5.57
2023-05-07T08:21:49.034Z,5.35
2023-05-07T08:24:54.957Z,5.97
2023-05-07T08:27:58.526Z,5.50
2023-05-07T08:31:02.422Z,4.47
2023-05-07T08:34:10.412Z,5.10
2023-05-07T08:37:17.045Z,4.47
2023-05-07T08:40:23.565Z,4.57
2023-05-07T08:43:29.119Z,4.68
2023-05-07T08:46:33.698Z,5.35
2023-05-07T08:49:36.978Z,4.95
2023-05-07T08:52:42.162Z,4.40
2023-05-07T08:55:45.370Z,3.88
2023-05-07T08:58:49.465Z,4.20
2023-05-07T09:01:52.908Z,4.43
2023-05-07T09:04:56.798Z,3.95
2023-05-07T09:08:04.724Z,3.92
2023-05-07T09:11:07.721Z,3.95
2023-05-07T09:14:10.779Z,3.67
2023-05-07T09:17:18.462Z,4.30
2023-05-07T09:20:21.890Z,3.85
2023-05-07T09:23:25.308Z,4.05
2023-05-07T09:26:29.507Z,3.42
2023-05-07T09:29:36.818Z,3.78
2023-05-07T09:32:41.690Z,3.00
2023-05-07T09:35:53.224Z,2.83
2023-05-07T09:38:58.163Z,3.47
2023-05-07T09:42:02.768Z,2.40
2023-05-07T09:45:10.500Z,2.78
2023-05-07T09:48:18.743Z,3.00
2023-05-07T09:51:51.727Z,3.10
2023-05-07T09:55:00.581Z,2.90
2023-05-07T09:58:06.986Z,2.80
2023-05-07T10:01:12.177Z,2.63
2023-05-07T10:04:16.824Z,2.65
2023-05-07T10:07:22.326Z,2.88
2023-05-07T10:10:29.479Z,2.50
2023-05-07T10:13:34.350Z,2.72
2023-05-07T10:16:38.132Z,2.70
2023-05-07T10:19:46.512Z,2.03
2023-05-07T10:22:50.833Z,2.60
2023-05-07T10:26:01.367Z,2.10
2023-05-07T10:29:26.841Z,1.95
2023-05-07T10:32:47.472Z,1.90
2023-05-07T10:36:00.662Z,1.80
2023-05-07T10:42:14.598Z,1.80
2023-05-07T10:45:24.046Z,1.70
2023-05-07T10:48:30.728Z,1.77
2023-05-07T10:51:40.253Z,1.58
2023-05-07T10:55:21.208Z,1.83
2023-05-07T10:58:36.228Z,2.15
2023-05-07T11:02:00.271Z,1.85
2023-05-07T11:05:24.077Z,1.50
2023-05-07T11:09:00.858Z,1.75
2023-05-07T11:12:18.331Z,1.80
2023-05-07T11:15:40.027Z,1.83
2023-05-07T11:18:56.948Z,1.55
2023-05-07T11:22:09.805Z,1.60
2023-05-07T11:25:21.623Z,1.65
2023-05-07T11:28:32.412Z,1.77
2023-05-07T11:31:39.927Z,1.90
2023-05-07T11:34:43.616Z,1.73
2023-05-07T11:37:47.167Z,1.67
2023-05-07T11:40:55.826Z,1.55
2023-05-07T11:44:00.005Z,1.98
2023-05-07T11:47:03.534Z,1.85
2023-05-07T11:50:09.128Z,2.08
2023-05-07T11:53:14.267Z,2.13
2023-05-07T11:56:18.559Z,1.90
2023-05-07T11:59:21.484Z,2.15
2023-05-07T12:02:26.449Z,2.28
2023-05-07T12:05:30.640Z,2.53
2023-05-07T12:08:34.269Z,2.10
2023-05-07T12:11:41.276Z,2.80
2023-05-07T12:14:45.659Z,2.85
2023-05-07T12:17:48.662Z,3.33
2023-05-07T12:20:52.239Z,3.22
2023-05-07T12:23:55.365Z,3.50
2023-05-07T12:26:58.388Z,4.25
2023-05-07T12:30:03.527Z,4.30
2023-05-07T12:33:06.482Z,3.45
2023-05-07T12:36:09.724Z,4.63
2023-05-07T12:39:12.616Z,4.25
2023-05-07T12:42:21.239Z,4.32
2023-05-07T12:45:24.309Z,4.85
2023-05-07T12:48:29.819Z,5.03
2023-05-07T12:51:32.687Z,5.15
2023-05-07T12:54:39.282Z,5.00
2023-05-07T12:57:43.787Z,4.75
2023-05-07T13:00:49.659Z,5.05
2023-05-07T13:03:52.897Z,4.93
2023-05-07T13:06:56.012Z,5.32
2023-05-07T13:09:59.090Z,5.18
2023-05-07T13:13:02.030Z,4.63
2023-05-07T13:16:06.581Z,5.47
2023-05-07T13:19:09.381Z,3.97
2023-05-07T13:22:12.393Z,3.38
2023-05-07T13:25:15.546Z,3.15
2023-05-07T13:28:19.085Z,3.30
2023-05-07T13:31:22.505Z,3.70
2023-05-07T13:34:25.245Z,3.67
2023-05-07T13:37:28.456Z,3.95
2023-05-07T13:40:31.760Z,3.70
2023-05-07T13:43:34.984Z,3.10
2023-05-07T13:46:37.849Z,3.65
2023-05-07T13:49:40.542Z,3.20
2023-05-07T13:52:46.945Z,2.90
2023-05-07T13:55:50.125Z,3.38
2023-05-07T13:59:00.071Z,2.80
2023-05-07T14:02:03.892Z,3.08
2023-05-07T14:05:06.872Z,2.65
2023-05-07T14:08:09.773Z,3.13
2023-05-07T14:11:12.841Z,3.03
2023-05-07T14:14:18.079Z,3.20
2023-05-07T14:17:21.547Z,3.22
2023-05-07T14:20:24.385Z,3.30
2023-05-07T14:23:27.978Z,3.45
2023-05-07T14:26:31.049Z,3.42
2023-05-07T14:29:34.357Z,2.80
2023-05-07T14:32:37.482Z,3.72
2023-05-07T14:35:40.714Z,2.72
2023-05-07T14:38:43.594Z,2.88
2023-05-07T14:41:46.395Z,2.70
2023-05-07T14:44:50.229Z,2.53
2023-05-07T14:47:53.362Z,3.17
2023-05-07T14:50:57.418Z,2.90
2023-05-07T14:54:00.565Z,3.15
2023-05-07T14:57:03.840Z,3.60
2023-05-07T15:00:08.353Z,2.80
2023-05-07T15:03:11.918Z,3.30
2023-05-07T15:06:17.931Z,3.35
2023-05-07T15:09:21.266Z,3.92
2023-05-07T15:12:24.312Z,3.63
2023-05-07T15:15:27.462Z,3.25
2023-05-07T15:21:37.887Z,3.60
2023-05-07T15:24:42.404Z,3.60
2023-05-07T15:27:45.378Z,3.88
2023-05-07T15:30:48.361Z,3.92
2023-05-07T15:33:53.335Z,3.97
2023-05-07T15:36:58.124Z,4.05
2023-05-07T15:40:03.502Z,3.75
2023-05-07T15:43:06.265Z,4.30
2023-05-07T15:46:09.065Z,6.22
2023-05-07T15:49:12.042Z,5.05
2023-05-07T15:52:16.316Z,5.07
2023-05-07T15:55:19.765Z,5.18
2023-05-07T15:58:22.933Z,4.85
2023-05-07T16:01:26.260Z,5.93
2023-05-07T16:04:29.120Z,6.70
2023-05-07T16:07:32.250Z,5.30
2023-05-07T16:10:35.116Z,5.13
2023-05-07T16:13:38.436Z,5.18
2023-05-07T16:16:41.443Z,4.88
2023-05-07T16:19:44.656Z,4.60
2023-05-07T16:22:47.439Z,5.07
2023-05-07T16:25:50.444Z,4.70
2023-05-07T16:28:53.475Z,5.10
2023-05-07T16:31:58.480Z,5.13
2023-05-07T16:35:01.503Z,4.68
2023-05-07T16:38:10.388Z,6.22
2023-05-07T16:41:13.991Z,5.20
2023-05-07T16:44:17.962Z,5.22
2023-05-07T16:47:21.714Z,4.72
2023-05-07T16:50:24.998Z,4.93
2023-05-07T16:53:28.090Z,5.30
2023-05-07T16:56:31.094Z,4.35
2023-05-07T16:59:34.100Z,4.53
2023-05-07T17:02:37.071Z,5.07
2023-05-07T17:05:40.396Z,4.15
2023-05-07T17:08:43.396Z,3.95
2023-05-07T17:11:46.445Z,4.38
2023-05-07T17:14:49.564Z,4.72
2023-05-07T17:17:52.722Z,3.88
2023-05-07T17:20:55.737Z,4.22
2023-05-07T17:23:58.460Z,3.42
2023-05-07T17:27:01.372Z,4.40
2023-05-07T17:30:04.564Z,3.67
2023-05-07T17:33:19.989Z,3.78
2023-05-07T17:36:23.982Z,4.13
2023-05-07T17:39:26.868Z,2.88
2023-05-07T17:42:30.222Z,3.10
2023-05-07T17:45:33.457Z,2.47
2023-05-07T17:48:36.203Z,3.15
2023-05-07T17:51:52.501Z,3.13
2023-05-07T17:57:59.229Z,3.33
2023-05-07T18:01:02.166Z,3.05
2023-05-07T18:04:05.274Z,2.97
2023-05-07T18:07:08.260Z,3.10
2023-05-07T18:10:11.910Z,3.33
2023-05-07T18:13:15.115Z,3.25
2023-05-07T18:16:19.576Z,3.20
2023-05-07T18:19:22.661Z,3.55
2023-05-07T18:22:25.421Z,3.00
2023-05-07T18:25:28.480Z,3.22
2023-05-07T18:28:31.394Z,3.65
2023-05-07T18:31:36.764Z,3.22
2023-05-07T18:34:40.782Z,3.50
2023-05-07T18:37:43.569Z,3.53
2023-05-07T18:40:47.840Z,3.78
2023-05-07T18:43:51.122Z,3.47
2023-05-07T18:46:53.894Z,3.80
2023-05-07T18:49:56.940Z,3.53
2023-05-07T18:53:00.131Z,3.42
2023-05-07T18:56:03.527Z,3.00
2023-05-07T18:59:06.486Z,3.88
2023-05-07T19:02:09.343Z,3.58
2023-05-07T19:05:12.413Z,2.97
2023-05-07T19:08:18.385Z,3.50
2023-05-07T19:11:22.171Z,2.95
2023-05-07T19:14:25.382Z,3.70
2023-05-07T19:17:28.407Z,3.75
2023-05-07T19:20:31.401Z,3.03
2023-05-07T19:23:34.835Z,3.50
2023-05-07T19:26:37.706Z,3.25
2023-05-07T19:29:41.130Z,3.50
2023-05-07T19:32:44.010Z,4.22
2023-05-07T19:35:46.963Z,4.07
2023-05-07T19:38:53.371Z,3.58
2023-05-07T19:41:56.688Z,3.60
2023-05-07T19:44:59.497Z,3.30
2023-05-07T19:48:04.855Z,3.90
2023-05-07T19:51:07.852Z,3.30
2023-05-07T19:54:11.091Z,3.38
2023-05-07T19:57:14.768Z,3.30
2023-05-07T20:00:23.714Z,3.30
2023-05-07T20:03:26.805Z,3.38
2023-05-07T20:06:29.830Z,3.38
2023-05-07T20:09:33.030Z,3.13
2023-05-07T20:12:36.057Z,3.50
2023-05-07T20:15:39.316Z,3.30
2023-05-07T20:18:42.237Z,3.72
2023-05-07T20:21:45.055Z,3.15
2023-05-07T20:24:48.043Z,3.30
2023-05-07T20:27:51.134Z,3.25
2023-05-07T20:30:54.303Z,2.55
2023-05-07T20:33:57.648Z,2.53
2023-05-07T20:37:00.671Z,3.10
2023-05-07T20:40:05.047Z,2.97
2023-05-07T20:43:08.419Z,2.92
2023-05-07T20:46:11.375Z,2.65
2023-05-07T20:49:14.274Z,3.20
2023-05-07T20:52:17.577Z,2.47
2023-05-07T20:55:20.514Z,2.80
2023-05-07T20:58:27.151Z,3.17
2023-05-07T21:01:30.049Z,3.00
2023-05-07T21:04:33.299Z,2.92
2023-05-07T21:07:36.325Z,2.63
2023-05-07T21:10:39.482Z,3.03
2023-05-07T21:13:42.448Z,3.10
2023-05-07T21:16:45.548Z,3.15
2023-05-07T21:19:50.138Z,3.25
2023-05-07T21:22:52.876Z,3.22
2023-05-07T21:25:55.632Z,3.08
2023-05-07T21:28:58.397Z,2.95
2023-05-07T21:32:01.196Z,3.17
2023-05-07T21:35:04.348Z,3.03
2023-05-07T21:38:07.270Z,2.63
2023-05-07T21:41:10.457Z,2.90
2023-05-07T21:44:13.402Z,3.10
2023-05-07T21:47:16.116Z,3.17
2023-05-07T21:50:19.577Z,3.17
2023-05-07T21:53:22.371Z,3.05
2023-05-07T21:56:25.439Z,3.67
2023-05-07T21:59:28.190Z,3.28
2023-05-07T22:02:31.045Z,3.15
2023-05-07T22:05:33.977Z,3.08
2023-05-07T22:08:36.752Z,3.28
2023-05-07T22:11:39.605Z,3.90
2023-05-07T22:14:42.455Z,3.25
2023-05-07T22:17:45.369Z,3.13
2023-05-07T22:20:51.659Z,2.85
2023-05-07T22:23:54.408Z,3.10
2023-05-07T22:26:57.157Z,3.30
2023-05-07T22:29:59.886Z,3.08
2023-05-07T22:33:02.658Z,3.15
2023-05-07T22:36:05.953Z,3.08
2023-05-07T22:39:10.305Z,3.22
2023-05-07T22:42:13.043Z,3.03
2023-05-07T22:45:16.094Z,3.10
2023-05-07T22:48:18.903Z,3.17
2023-05-07T22:51:21.923Z,2.65
2023-05-07T22:54:25.691Z,2.95
2023-05-07T22:57:28.472Z,2.97
2023-05-07T23:00:31.302Z,2.90
2023-05-07T23:03:34.233Z,2.85
2023-05-07T23:06:37.024Z,2.78
2023-05-07T23:09:40.092Z,2.80
2023-05-07T23:12:43.346Z,2.88
2023-05-07T23:15:46.607Z,2.78
2023-05-07T23:18:49.882Z,3.00
2023-05-07T23:21:53.669Z,2.80
2023-05-07T23:24:56.845Z,2.70
2023-05-07T23:27:59.496Z,2.65
2023-05-07T23:31:02.452Z,2.50
2023-05-07T23:34:05.303Z,2.97
2023-05-07T23:37:10.399Z,2.58
2023-05-07T23:40:13.467Z,3.50
2023-05-07T23:43:16.459Z,2.55
2023-05-07T23:46:20.099Z,2.72
2023-05-07T23:49:22.745Z,2.53
2023-05-07T23:52:25.514Z,2.60
2023-05-07T23:55:28.264Z,2.22
2023-05-07T23:58:31.210Z,2.60
